createdAt,value
2023-11-03T00:00:48.233Z,1.38
2023-11-03T00:05:45.225Z,1.13
2023-11-03T00:10:42.093Z,2.42
2023-11-03T00:15:39.011Z,1.35
2023-11-03T00:20:36.170Z,1.80
2023-11-03T00:25:33.686Z,2.13
2023-11-03T00:30:30.408Z,1.83
2023-11-03T00:35:27.141Z,1.58
2023-11-03T00:40:23.870Z,1.85
2023-11-03T00:45:20.566Z,1.50
2023-11-03T00:50:17.424Z,1.40
2023-11-03T00:55:14.834Z,1.60
2023-11-03T01:00:15.076Z,1.65
2023-11-03T01:05:12.167Z,1.60
2023-11-03T01:10:10.429Z,1.67
2023-11-03T01:15:07.793Z,1.63
2023-11-03T01:20:14.269Z,2.08
2023-11-03T01:25:14.083Z,2.90
2023-11-03T01:30:15.762Z,2.35
2023-11-03T01:35:13.282Z,2.05
2023-11-03T01:40:10.866Z,1.55
2023-11-03T01:45:08.332Z,1.02
2023-11-03T01:50:06.303Z,0.80
2023-11-03T01:55:04.110Z,0.88
2023-11-03T02:00:01.393Z,1.35
2023-11-03T02:04:58.127Z,1.50
2023-11-03T02:09:55.007Z,1.33
2023-11-03T02:14:52.968Z,0.95
2023-11-03T02:19:49.841Z,1.00
2023-11-03T02:24:46.719Z,1.60
2023-11-03T02:29:43.530Z,1.80
2023-11-03T02:34:40.277Z,1.40
2023-11-03T02:39:38.263Z,0.90
2023-11-03T02:44:35.069Z,1.58
2023-11-03T02:49:32.613Z,1.23
2023-11-03T02:54:30.278Z,1.38
2023-11-03T02:59:26.997Z,1.73
2023-11-03T03:04:23.746Z,1.38
2023-11-03T03:09:20.528Z,1.00
2023-11-03T03:14:17.497Z,1.40
2023-11-03T03:19:14.678Z,0.93
2023-11-03T03:24:11.521Z,1.13
2023-11-03T03:29:08.480Z,1.02
2023-11-03T03:34:05.356Z,1.20
2023-11-03T03:39:02.502Z,0.80
2023-11-03T03:43:59.211Z,1.00
2023-11-03T03:48:56.907Z,1.25
2023-11-03T03:53:53.645Z,0.80
2023-11-03T03:58:50.371Z,1.52
2023-11-03T04:03:47.104Z,0.63
2023-11-03T04:08:43.868Z,1.80
2023-11-03T04:13:40.805Z,1.90
2023-11-03T04:18:40.916Z,0.90
2023-11-03T04:23:37.764Z,0.80
2023-11-03T04:28:36.563Z,0.77
2023-11-03T04:33:33.369Z,1.58
2023-11-03T04:38:30.336Z,1.00
2023-11-03T04:43:27.032Z,1.27
2023-11-03T04:48:23.859Z,0.57
2023-11-03T04:53:21.813Z,0.55
2023-11-03T04:58:18.880Z,1.15
2023-11-03T05:03:16.669Z,1.08
2023-11-03T05:08:14.343Z,0.98
2023-11-03T05:13:11.220Z,1.10
2023-11-03T05:18:08.081Z,0.82
2023-11-03T05:23:05.250Z,0.90
2023-11-03T05:28:02.019Z,1.15
2023-11-03T05:32:58.989Z,0.90
2023-11-03T05:37:57.154Z,0.90
2023-11-03T05:42:53.898Z,0.93
2023-11-03T05:47:50.743Z,0.93
2023-11-03T05:52:47.466Z,1.95
2023-11-03T05:57:44.227Z,1.00
2023-11-03T06:02:41.025Z,0.50
2023-11-03T06:07:37.888Z,0.73
2023-11-03T06:12:34.584Z,1.00
2023-11-03T06:17:31.450Z,0.95
2023-11-03T06:22:28.202Z,0.77
2023-11-03T06:27:24.950Z,1.02
2023-11-03T06:32:21.702Z,0.65
2023-11-03T06:37:18.486Z,0.65
2023-11-03T06:42:15.203Z,0.55
2023-11-03T06:47:11.928Z,1.48
2023-11-03T06:52:10.630Z,0.60
2023-11-03T06:57:07.825Z,0.65
2023-11-03T07:02:04.628Z,0.70
2023-11-03T07:07:01.432Z,1.35
2023-11-03T07:11:58.398Z,1.20
2023-11-03T07:16:56.202Z,1.40
2023-11-03T07:21:54.773Z,1.17
2023-11-03T07:26:51.814Z,0.73
2023-11-03T07:31:49.003Z,0.75
2023-11-03T07:36:48.599Z,1.42
2023-11-03T07:41:45.574Z,0.80
2023-11-03T07:46:42.708Z,0.70
2023-11-03T07:51:39.469Z,0.73
2023-11-03T07:56:37.073Z,0.73
2023-11-03T08:01:34.046Z,0.88
2023-11-03T08:06:30.786Z,0.85
2023-11-03T08:11:27.583Z,0.95
2023-11-03T08:16:24.343Z,0.80
2023-11-03T08:21:21.063Z,0.77
2023-11-03T08:26:18.288Z,0.77
2023-11-03T08:31:15.556Z,0.50
2023-11-03T08:36:13.052Z,1.10
2023-11-03T08:41:10.514Z,0.70
2023-11-03T08:46:08.075Z,0.63
2023-11-03T08:51:04.966Z,0.43
2023-11-03T08:56:03.259Z,0.68
2023-11-03T09:01:01.909Z,0.52
2023-11-03T09:06:01.400Z,0.93
2023-11-03T09:10:58.600Z,0.70
2023-11-03T09:15:55.509Z,1.20
2023-11-03T09:20:52.702Z,0.60
2023-11-03T09:25:49.526Z,0.85
2023-11-03T09:30:46.706Z,0.80
2023-11-03T09:35:43.447Z,0.57
2023-11-03T09:40:40.524Z,0.82
2023-11-03T09:45:39.116Z,0.95
2023-11-03T09:50:39.706Z,0.93
2023-11-03T09:55:40.423Z,0.40
2023-11-03T10:00:38.795Z,0.57
2023-11-03T10:05:38.103Z,0.75
2023-11-03T10:10:36.686Z,0.40
2023-11-03T10:15:33.709Z,0.40
2023-11-03T10:20:30.562Z,1.00
2023-11-03T10:25:28.092Z,0.73
2023-11-03T10:30:29.058Z,1.48
2023-11-03T10:35:25.962Z,0.60
2023-11-03T10:40:22.782Z,0.68
2023-11-03T10:45:22.404Z,0.80
2023-11-03T10:50:21.987Z,1.05
2023-11-03T10:55:27.273Z,1.13
2023-11-03T11:00:33.291Z,0.70
2023-11-03T11:05:50.301Z,1.00
2023-11-03T11:10:47.303Z,0.65
2023-11-03T11:16:12.335Z,0.80
2023-11-03T11:21:12.669Z,1.00
2023-11-03T11:26:28.137Z,0.73
2023-11-03T11:31:31.707Z,0.43
2023-11-03T11:36:28.523Z,1.70
2023-11-03T11:41:28.422Z,0.68
2023-11-03T11:46:26.397Z,0.50
2023-11-03T11:51:23.328Z,0.90
2023-11-03T11:56:21.895Z,0.60
2023-11-03T12:01:18.708Z,0.70
2023-11-03T12:06:15.939Z,0.80
2023-11-03T12:11:13.181Z,0.75
2023-11-03T12:16:10.213Z,0.60
2023-11-03T12:21:07.038Z,0.60
2023-11-03T12:26:04.592Z,0.90
2023-11-03T12:31:05.899Z,0.82
2023-11-03T12:36:03.402Z,0.68
2023-11-03T12:41:15.013Z,0.60
2023-11-03T12:46:12.167Z,1.05
2023-11-03T12:51:08.948Z,0.73
2023-11-03T12:56:06.268Z,0.50
2023-11-03T13:01:06.065Z,0.82
2023-11-03T13:06:06.348Z,0.80
2023-11-03T13:11:03.474Z,0.80
2023-11-03T13:16:01.775Z,0.52
2023-11-03T13:20:59.020Z,1.00
2023-11-03T13:25:55.770Z,0.43
2023-11-03T13:30:52.496Z,0.80
2023-11-03T13:35:49.990Z,0.75
2023-11-03T13:40:51.633Z,0.60
2023-11-03T13:45:48.586Z,0.60
2023-11-03T13:50:46.070Z,0.73
2023-11-03T13:55:42.884Z,0.77
2023-11-03T14:00:41.947Z,0.52
2023-11-03T14:05:40.481Z,0.70
2023-11-03T14:10:37.407Z,1.20
2023-11-03T14:15:35.944Z,1.00
2023-11-03T14:20:32.675Z,0.38
2023-11-03T14:25:29.527Z,0.65
2023-11-03T14:30:26.784Z,0.57
2023-11-03T14:35:26.155Z,0.80
2023-11-03T14:40:24.362Z,0.90
2023-11-03T14:45:21.868Z,0.75
2023-11-03T14:50:19.776Z,0.93
2023-11-03T14:55:19.328Z,0.77
2023-11-03T15:00:18.271Z,0.60
2023-11-03T15:05:15.592Z,0.75
2023-11-03T15:10:15.066Z,0.75
2023-11-03T15:15:15.388Z,1.00
2023-11-03T15:20:15.340Z,0.98
2023-11-03T15:25:18.691Z,0.80
2023-11-03T15:30:19.224Z,1.13
2023-11-03T15:35:17.092Z,0.90
2023-11-03T15:40:18.813Z,1.35
2023-11-03T15:45:19.350Z,1.40
2023-11-03T15:50:18.616Z,1.60
2023-11-03T15:55:15.914Z,1.55
2023-11-03T16:00:15.331Z,1.00
2023-11-03T16:05:13.514Z,0.70
2023-11-03T16:10:14.628Z,0.82
2023-11-03T16:15:12.735Z,1.00
2023-11-03T16:20:10.790Z,0.95
2023-11-03T16:25:10.522Z,1.23
2023-11-03T16:30:19.130Z,1.42
2023-11-03T16:35:18.204Z,1.45
2023-11-03T16:40:15.828Z,0.98
2023-11-03T16:45:13.394Z,1.30
2023-11-03T16:50:12.675Z,1.60
2023-11-03T16:55:10.483Z,1.17
2023-11-03T17:00:13.440Z,1.98
2023-11-03T17:05:12.988Z,1.50
2023-11-03T17:10:15.358Z,2.40
2023-11-03T17:15:12.455Z,2.38
2023-11-03T17:20:12.937Z,2.70
2023-11-03T17:25:11.005Z,2.05
2023-11-03T17:30:10.522Z,1.80
2023-11-03T17:35:07.787Z,1.60
2023-11-03T17:40:05.663Z,2.08
2023-11-03T17:45:02.484Z,1.67
2023-11-03T17:49:59.255Z,1.48
2023-11-03T17:54:56.151Z,2.00
2023-11-03T17:59:52.884Z,1.60
2023-11-03T18:04:49.954Z,1.60
2023-11-03T18:09:46.755Z,1.60
2023-11-03T18:14:43.513Z,1.67
2023-11-03T18:19:40.528Z,2.25
2023-11-03T18:24:37.288Z,1.70
2023-11-03T18:29:34.292Z,1.10
2023-11-03T18:34:31.864Z,1.30
2023-11-03T18:39:28.997Z,1.70
2023-11-03T18:44:25.725Z,1.55
2023-11-03T19:00:23.294Z,1.38
2023-11-03T19:09:39.279Z,1.85
2023-11-03T19:14:36.208Z,1.98
2023-11-03T19:19:34.118Z,2.28
2023-11-03T19:24:30.972Z,2.13
2023-11-03T19:29:27.721Z,2.45
2023-11-03T19:34:24.803Z,2.53
2023-11-03T19:39:23.875Z,2.33
2023-11-03T19:44:20.655Z,2.35
2023-11-03T19:49:17.406Z,2.35
2023-11-03T19:54:14.413Z,2.60
2023-11-03T19:59:11.345Z,2.42
2023-11-03T20:04:09.820Z,2.67
2023-11-03T20:09:06.609Z,3.30
2023-11-03T20:14:03.325Z,6.63
2023-11-03T20:19:00.139Z,6.68
2023-11-03T20:23:56.845Z,7.68
2023-11-03T20:28:53.605Z,5.43
2023-11-03T20:33:51.524Z,4.13
2023-11-03T20:38:48.286Z,3.70
2023-11-03T20:43:45.114Z,2.42
2023-11-03T20:48:41.949Z,2.42
2023-11-03T20:53:38.706Z,2.40
2023-11-03T20:58:35.473Z,2.33
2023-11-03T21:03:32.513Z,2.85
2023-11-03T21:08:29.780Z,1.98
2023-11-03T21:13:30.239Z,2.28
2023-11-03T21:18:29.268Z,2.42
2023-11-03T21:23:26.090Z,2.30
2023-11-03T21:28:22.792Z,2.63
2023-11-03T21:33:20.544Z,1.40
2023-11-03T21:38:17.537Z,1.75
2023-11-03T21:43:15.944Z,2.15
2023-11-03T21:48:12.788Z,2.10
2023-11-03T21:53:10.508Z,1.52
2023-11-03T21:58:07.461Z,3.08
2023-11-03T22:03:04.876Z,3.38
2023-11-03T22:08:02.143Z,3.42
2023-11-03T22:12:58.938Z,2.70
2023-11-03T22:17:57.901Z,3.55
2023-11-03T22:22:55.074Z,3.33
2023-11-03T22:27:51.945Z,3.70
2023-11-03T22:32:49.212Z,4.65
2023-11-03T22:37:46.075Z,5.10
2023-11-03T22:42:42.928Z,7.03
2023-11-03T22:47:43.106Z,7.28
2023-11-03T22:52:40.472Z,6.85
2023-11-03T22:57:38.016Z,7.18
2023-11-03T23:02:34.816Z,6.13
2023-11-03T23:07:31.628Z,4.90
2023-11-03T23:12:28.471Z,5.30
2023-11-03T23:17:25.253Z,5.57
2023-11-03T23:22:22.360Z,5.13
2023-11-03T23:27:19.198Z,5.95
2023-11-03T23:32:16.024Z,4.75
2023-11-03T23:37:12.947Z,4.97
2023-11-03T23:42:09.743Z,5.07
2023-11-03T23:47:07.429Z,4.75
2023-11-03T23:52:04.860Z,3.20
2023-11-03T23:57:02.034Z,3.17
